Time;durP1;ratioP1;P1;durP2;ratioP2;P2;SDS_P1;SDS_P2;PMS_P1;PMS_P2;Temp;Humidity;BMP_temperature;BMP_pressure;BME280_temperature;BME280_humidity;BME280_pressure;Samples;Min_cycle;Max_cycle;Signal;HPM_P1;HPM_P2
2023/09/11 00:01:30;;;;;;;;;;;;;;;;;;5092860;28;1316;-70
2023/09/11 00:03:56;;;;;;;;;;;;;;;;;;5110063;28;870;-70
2023/09/11 00:06:21;;;;;;;;;;;;;;;;;;5109868;28;1313;-70
2023/09/11 00:08:47;;;;;;;;;;;;;;;;;;5110967;28;1902;-71
2023/09/11 00:11:12;;;;;;;;;;;;;;;;;;5110342;28;765;-70
2023/09/11 00:13:38;;;;;;;;;;;;;;;;;;5110830;28;840;-70
2023/09/11 00:16:03;;;;;;;;;;;;;;;;;;5110731;28;868;-70
2023/09/11 00:18:28;;;;;;;;;;;;;;;;;;5111501;28;887;-71
2023/09/11 00:20:53;;;;;;;;;;;;;;;;;;5110657;28;1217;-70
2023/09/11 00:23:19;;;;;;;;;;;;;;;;;;5110263;28;1287;-70
2023/09/11 00:25:44;;;;;;;;;;;;;;;;;;5111008;28;966;-70
2023/09/11 00:28:09;;;;;;;;;;;;;;;;;;5111883;28;1894;-70
2023/09/11 00:30:35;;;;;;;;;;;;;;;;;;5092804;28;1255;-70
2023/09/11 00:33:01;;;;;;;;;;;;;;;;;;5110250;28;1589;-70
2023/09/11 00:35:26;;;;;;;;;;;;;;;;;;5111667;28;955;-70
2023/09/11 00:37:51;;;;;;;;;;;;;;;;;;5111761;28;1042;-70
2023/09/11 00:40:16;;;;;;;;;;;;;;;;;;5111799;28;852;-70
2023/09/11 00:42:42;;;;;;;;;;;;;;;;;;5110976;28;932;-71
2023/09/11 00:45:07;;;;;;;;;;;;;;;;;;5111954;28;962;-70
2023/09/11 00:47:32;;;;;;;;;;;;;;;;;;5109906;28;1890;-71
2023/09/11 00:49:58;;;;;;;;;;;;;;;;;;5111465;28;891;-70
2023/09/11 00:52:24;;;;;;;;;;;;;;;;;;5111687;28;840;-70
2023/09/11 00:54:50;;;;;;;;;;;;;;;;;;5110932;28;1091;-70
2023/09/11 00:57:18;;;;;;;;;;;;;;;;;;5111282;28;1184;-70
2023/09/11 00:59:44;;;;;;;;;;;;;;;;;;5110772;28;1214;-70
2023/09/11 01:02:10;;;;;;;;;;;;;;;;;;5111483;28;1402;-71
2023/09/11 01:04:35;;;;;;;;;;;;;;;;;;5111968;28;973;-71
2023/09/11 01:07:01;;;;;;;;;;;;;;;;;;5110759;28;1961;-70
2023/09/11 01:09:26;;;;;;;;;;;;;;;;;;5110410;28;1288;-72
2023/09/11 01:11:51;;;;;;;;;;;;;;;;;;5110560;28;848;-71
2023/09/11 01:14:17;;;;;;;;;;;;;;;;;;5111802;28;831;-71
2023/09/11 01:16:45;;;;;;;;;;;;;;;;;;5111959;28;962;-70
2023/09/11 01:19:29;;;;;;;;;;;;;;;;;;5113618;28;1233;-72
2023/09/11 01:22:00;;;;;;;;;;;;;;;;;;5113626;28;1246;-71
2023/09/11 01:24:44;;;;;;;;;;;;;;;;;;5114060;28;1534;-72
2023/09/11 01:27:22;;;;;;;;;;;;;;;;;;5114873;27;1886;-70
2023/09/11 01:29:48;;;;;;;;;;;;;;;;;;5113028;28;1182;-70
2023/09/11 01:32:15;;;;;;;;;;;;;;;;;;5113371;28;927;-70
2023/09/11 01:34:40;;;;;;;;;;;;;;;;;;5114436;28;922;-70
2023/09/11 01:37:05;;;;;;;;;;;;;;;;;;5114627;28;915;-70
2023/09/11 01:39:31;;;;;;;;;;;;;;;;;;5113096;28;918;-71
2023/09/11 01:42:00;;;;;;;;;;;;;;;;;;5114850;28;962;-71
2023/09/11 01:44:39;;;;;;;;;;;;;;;;;;5114065;28;1406;-71
2023/09/11 01:47:06;;;;;;;;;;;;;;;;;;5114411;28;1972;-71
2023/09/11 01:49:31;;;;;;;;;;;;;;;;;;5113705;28;919;-71
2023/09/11 01:51:57;;;;;;;;;;;;;;;;;;5114787;28;895;-71
2023/09/11 01:54:24;;;;;;;;;;;;;;;;;;5095837;28;1280;-71
2023/09/11 01:56:50;;;;;;;;;;;;;;;;;;5112707;28;1309;-71
2023/09/11 01:59:15;;;;;;;;;;;;;;;;;;5112748;28;1481;-71
2023/09/11 02:01:40;;;;;;;;;;;;;;;;;;5112330;28;1230;-71
2023/09/11 02:04:06;;;;;;;;;;;;;;;;;;5112108;28;1090;-71
2023/09/11 02:06:31;;;;;;;;;;;;;;;;;;5113843;28;828;-71
2023/09/11 02:08:56;;;;;;;;;;;;;;;;;;5095546;28;1902;-71
2023/09/11 02:11:22;;;;;;;;;;;;;;;;;;5114309;28;875;-71
2023/09/11 02:13:47;;;;;;;;;;;;;;;;;;5112944;28;916;-71
2023/09/11 02:16:13;;;;;;;;;;;;;;;;;;5113993;28;816;-71
2023/09/11 02:18:39;;;;;;;;;;;;;;;;;;5112327;28;919;-71
2023/09/11 02:21:05;;;;;;;;;;;;;;;;;;5112165;28;1422;-71
2023/09/11 02:23:30;;;;;;;;;;;;;;;;;;5113781;27;880;-71
2023/09/11 02:25:56;;;;;;;;;;;;;;;;;;5113602;28;939;-71
2023/09/11 02:28:21;;;;;;;;;;;;;;;;;;5112844;28;1965;-71
2023/09/11 02:30:46;;;;;;;;;;;;;;;;;;5113357;28;1026;-71
2023/09/11 02:33:11;;;;;;;;;;;;;;;;;;5113449;28;864;-71
2023/09/11 02:35:37;;;;;;;;;;;;;;;;;;5114114;28;896;-71
2023/09/11 02:38:02;;;;;;;;;;;;;;;;;;5112543;28;892;-71
2023/09/11 02:40:27;;;;;;;;;;;;;;;;;;5112175;28;892;-70
2023/09/11 02:42:53;;;;;;;;;;;;;;;;;;5112744;28;1563;-70
2023/09/11 02:45:18;;;;;;;;;;;;;;;;;;5112347;28;2058;-70
2023/09/11 02:47:43;;;;;;;;;;;;;;;;;;5113041;28;1965;-70
2023/09/11 02:50:09;;;;;;;;;;;;;;;;;;5113404;28;1046;-70
2023/09/11 02:52:34;;;;;;;;;;;;;;;;;;5113842;28;848;-70
2023/09/11 02:54:59;;;;;;;;;;;;;;;;;;5113964;28;1385;-70
2023/09/11 02:57:24;;;;;;;;;;;;;;;;;;5114052;28;1003;-70
2023/09/11 02:59:54;;;;;;;;;;;;;;;;;;5114564;28;961;-71
2023/09/11 03:02:20;;;;;;;;;;;;;;;;;;5112792;28;1206;-71
2023/09/11 03:04:45;;;;;;;;;;;;;;;;;;5113885;28;1001;-70
2023/09/11 03:07:10;;;;;;;;;;;;;;;;;;5112969;28;1897;-70
2023/09/11 03:09:36;;;;;;;;;;;;;;;;;;5094564;28;1393;-71
2023/09/11 03:12:01;;;;;;;;;;;;;;;;;;5111918;28;832;-71
2023/09/11 03:14:26;;;;;;;;;;;;;;;;;;5111841;28;833;-70
2023/09/11 03:16:52;;;;;;;;;;;;;;;;;;5111878;28;1377;-71
2023/09/11 03:19:17;;;;;;;;;;;;;;;;;;5110980;28;827;-70
2023/09/11 03:21:42;;;;;;;;;;;;;;;;;;5110384;28;1010;-71
2023/09/11 03:24:07;;;;;;;;;;;;;;;;;;5112762;28;962;-71
2023/09/11 03:26:32;;;;;;;;;;;;;;;;;;5111231;28;884;-71
2023/09/11 03:28:58;;;;;;;;;;;;;;;;;;5111682;28;1894;-71
2023/09/11 03:31:23;;;;;;;;;;;;;;;;;;5112615;28;1066;-71
2023/09/11 03:33:48;;;;;;;;;;;;;;;;;;5110556;28;1302;-71
2023/09/11 03:36:14;;;;;;;;;;;;;;;;;;5112204;28;809;-71
2023/09/11 03:38:40;;;;;;;;;;;;;;;;;;5109828;28;844;-71
2023/09/11 03:41:05;;;;;;;;;;;;;;;;;;5110905;28;903;-71
2023/09/11 03:43:30;;;;;;;;;;;;;;;;;;5093415;28;1310;-71
2023/09/11 03:45:56;;;;;;;;;;;;;;;;;;5093725;28;1242;-71
2023/09/11 03:48:21;;;;;;;;;;;;;;;;;;5112368;28;1897;-71
2023/09/11 03:50:46;;;;;;;;;;;;;;;;;;5110543;28;1308;-71
2023/09/11 03:53:11;;;;;;;;;;;;;;;;;;5110312;28;838;-71
2023/09/11 03:55:37;;;;;;;;;;;;;;;;;;5109702;28;1328;-71
2023/09/11 03:58:02;;;;;;;;;;;;;;;;;;5111881;28;825;-71
2023/09/11 04:00:27;;;;;;;;;;;;;;;;;;5110524;28;820;-71
2023/09/11 04:02:53;;;;;;;;;;;;;;;;;;5092989;28;1265;-71
2023/09/11 04:05:18;;;;;;;;;;;;;;;;;;5111304;28;993;-71
2023/09/11 04:07:43;;;;;;;;;;;;;;;;;;5110047;28;1914;-71
2023/09/11 04:10:09;;;;;;;;;;;;;;;;;;5112028;28;808;-72
2023/09/11 04:12:34;;;;;;;;;;;;;;;;;;5111527;28;832;-71
2023/09/11 04:14:59;;;;;;;;;;;;;;;;;;5111869;28;980;-71
2023/09/11 04:17:24;;;;;;;;;;;;;;;;;;5111469;28;991;-71
2023/09/11 04:19:50;;;;;;;;;;;;;;;;;;5110021;28;1368;-71
2023/09/11 04:22:15;;;;;;;;;;;;;;;;;;5110654;28;800;-71
2023/09/11 04:24:40;;;;;;;;;;;;;;;;;;5111951;28;986;-71
2023/09/11 04:27:06;;;;;;;;;;;;;;;;;;5110491;28;1878;-71
2023/09/11 04:29:31;;;;;;;;;;;;;;;;;;5093366;28;1278;-71
2023/09/11 04:31:56;;;;;;;;;;;;;;;;;;5112869;28;1010;-71
2023/09/11 04:34:21;;;;;;;;;;;;;;;;;;5110834;28;1255;-71
2023/09/11 04:36:47;;;;;;;;;;;;;;;;;;5112279;28;942;-71
2023/09/11 04:39:12;;;;;;;;;;;;;;;;;;5110511;28;903;-71
2023/09/11 04:41:37;;;;;;;;;;;;;;;;;;5110960;28;904;-71
2023/09/11 04:44:03;;;;;;;;;;;;;;;;;;5092967;28;1440;-71
2023/09/11 04:46:28;;;;;;;;;;;;;;;;;;5111361;28;1074;-71
2023/09/11 04:48:55;;;;;;;;;;;;;;;;;;5111041;28;1905;-71
2023/09/11 04:51:20;;;;;;;;;;;;;;;;;;5118976;28;919;-71
2023/09/11 04:53:45;;;;;;;;;;;;;;;;;;5097642;28;1187;-71
2023/09/11 04:56:10;;;;;;;;;;;;;;;;;;5097195;28;1124;-71
2023/09/11 04:58:36;;;;;;;;;;;;;;;;;;5097603;28;937;-71
2023/09/11 05:01:02;;;;;;;;;;;;;;;;;;5080491;28;1140;-71
2023/09/11 05:03:28;;;;;;;;;;;;;;;;;;5097543;28;899;-71
2023/09/11 05:05:53;;;;;;;;;;;;;;;;;;5081189;28;1437;-71
2023/09/11 05:08:18;;;;;;;;;;;;;;;;;;5097176;28;1917;-71
2023/09/11 05:10:44;;;;;;;;;;;;;;;;;;5079553;28;1208;-72
2023/09/11 05:13:12;;;;;;;;;;;;;;;;;;5096235;28;1296;-71
2023/09/11 05:15:38;;;;;;;;;;;;;;;;;;5095483;28;1451;-71
2023/09/11 05:18:03;;;;;;;;;;;;;;;;;;5097131;28;960;-71
2023/09/11 05:20:30;;;;;;;;;;;;;;;;;;5096413;28;1506;-71
2023/09/11 05:22:55;;;;;;;;;;;;;;;;;;5096363;28;1379;-71
2023/09/11 05:25:21;;;;;;;;;;;;;;;;;;5097316;28;891;-71
2023/09/11 05:27:46;;;;;;;;;;;;;;;;;;5096902;28;1948;-71
2023/09/11 05:30:14;;;;;;;;;;;;;;;;;;5097068;28;994;-70
2023/09/11 05:32:39;;;;;;;;;;;;;;;;;;5096832;28;860;-71
2023/09/11 05:35:05;;;;;;;;;;;;;;;;;;5096199;28;1253;-71
2023/09/11 05:37:31;;;;;;;;;;;;;;;;;;5097393;28;907;-71
2023/09/11 05:39:56;;;;;;;;;;;;;;;;;;5096572;28;1098;-71
2023/09/11 05:42:21;;;;;;;;;;;;;;;;;;5097046;28;828;-70
2023/09/11 05:44:48;;;;;;;;;;;;;;;;;;5096508;28;800;-71
2023/09/11 05:47:13;;;;;;;;;;;;;;;;;;5097338;28;1942;-71
2023/09/11 05:49:38;;;;;;;;;;;;;;;;;;5095599;28;842;-71
2023/09/11 05:52:04;;;;;;;;;;;;;;;;;;5095573;28;962;-71
2023/09/11 05:54:30;;;;;;;;;;;;;;;;;;5078800;28;1259;-71
2023/09/11 05:56:55;;;;;;;;;;;;;;;;;;5078552;28;1269;-71
2023/09/11 05:59:21;;;;;;;;;;;;;;;;;;5095743;28;849;-71
2023/09/11 06:01:46;;;;;;;;;;;;;;;;;;5094371;28;911;-70
2023/09/11 06:04:11;;;;;;;;;;;;;;;;;;5094310;28;1000;-71
2023/09/11 06:06:37;;;;;;;;;;;;;;;;;;5093853;28;876;-71
2023/09/11 06:09:05;;;;;;;;;;;;;;;;;;5092792;28;1887;-70
2023/09/11 06:11:31;;;;;;;;;;;;;;;;;;5092396;28;1157;-70
2023/09/11 06:13:56;;;;;;;;;;;;;;;;;;5094196;28;837;-70
2023/09/11 06:16:22;;;;;;;;;;;;;;;;;;5093830;28;884;-70
2023/09/11 06:18:47;;;;;;;;;;;;;;;;;;5093980;28;848;-70
2023/09/11 06:21:13;;;;;;;;;;;;;;;;;;5094241;28;888;-70
2023/09/11 06:23:38;;;;;;;;;;;;;;;;;;5094744;28;805;-70
2023/09/11 06:26:03;;;;;;;;;;;;;;;;;;5076139;28;1205;-70
2023/09/11 06:28:28;;;;;;;;;;;;;;;;;;5093337;28;1902;-71
2023/09/11 06:30:54;;;;;;;;;;;;;;;;;;5091328;28;880;-71
2023/09/11 06:33:19;;;;;;;;;;;;;;;;;;5092555;28;872;-71
2023/09/11 06:35:44;;;;;;;;;;;;;;;;;;5092035;28;809;-70
2023/09/11 06:38:11;;;;;;;;;;;;;;;;;;5091755;28;821;-70
2023/09/11 06:40:37;;;;;;;;;;;;;;;;;;5075080;28;1756;-71
2023/09/11 06:43:02;;;;;;;;;;;;;;;;;;5091762;28;1214;-71
2023/09/11 06:45:27;;;;;;;;;;;;;;;;;;5093564;28;837;-71
2023/09/11 06:47:53;;;;;;;;;;;;;;;;;;5075768;28;1910;-71
2023/09/11 06:50:18;;;;;;;;;;;;;;;;;;5093690;28;828;-71
2023/09/11 06:52:43;;;;;;;;;;;;;;;;;;5092687;28;946;-71
2023/09/11 06:55:09;;;;;;;;;;;;;;;;;;5091678;28;1174;-71
2023/09/11 06:57:34;;;;;;;;;;;;;;;;;;5090377;28;1303;-70
2023/09/11 06:59:59;;;;;;;;;;;;;;;;;;5092966;28;860;-70
2023/09/11 07:02:25;;;;;;;;;;;;;;;;;;5089120;28;1215;-70
2023/09/11 07:04:50;;;;;;;;;;;;;;;;;;5090756;28;1119;-71
2023/09/11 07:07:15;;;;;;;;;;;;;;;;;;5094621;28;1968;-70
2023/09/11 07:09:40;;;;;;;;;;;;;;;;;;5095622;28;1255;-71
2023/09/11 07:12:06;;;;;;;;;;;;;;;;;;5112464;28;1174;-71
2023/09/11 07:14:31;;;;;;;;;;;;;;;;;;5111400;28;994;-70
2023/09/11 07:17:00;;;;;;;;;;;;;;;;;;5111225;28;927;-70
2023/09/11 07:19:25;;;;;;;;;;;;;;;;;;5111499;28;1139;-70
2023/09/11 07:21:51;;;;;;;;;;;;;;;;;;5089877;27;1171;-70
2023/09/11 07:24:16;;;;;;;;;;;;;;;;;;5088968;28;1124;-70
2023/09/11 07:26:42;;;;;;;;;;;;;;;;;;5110750;28;1215;-70
2023/09/11 07:29:07;;;;;;;;;;;;;;;;;;5112411;28;1945;-70
2023/09/11 07:31:32;;;;;;;;;;;;;;;;;;5110305;28;1353;-70
2023/09/11 07:33:58;;;;;;;;;;;;;;;;;;5110821;28;962;-71
2023/09/11 07:36:24;;;;;;;;;;;;;;;;;;5111964;28;863;-70
2023/09/11 07:38:49;;;;;;;;;;;;;;;;;;5112043;28;848;-70
2023/09/11 07:41:15;;;;;;;;;;;;;;;;;;5112263;28;883;-70
2023/09/11 07:43:42;;;;;;;;;;;;;;;;;;5093921;28;1419;-71
2023/09/11 07:46:07;;;;;;;;;;;;;;;;;;5094284;28;1207;-70
2023/09/11 07:48:35;;;;;;;;;;;;;;;;;;5111635;28;1971;-70
2023/09/11 07:51:00;;;;;;;;;;;;;;;;;;5112435;28;828;-70
2023/09/11 07:53:30;;;;;;;;;;;;;;;;;;5111011;28;1250;-70
2023/09/11 07:55:56;;;;;;;;;;;;;;;;;;5110212;28;1202;-70
2023/09/11 07:58:21;;;;;;;;;;;;;;;;;;5112113;28;970;-70
2023/09/11 08:00:47;;;;;;;;;;;;;;;;;;5112539;28;928;-70
2023/09/11 08:03:12;;;;;;;;;;;;;;;;;;5110661;28;1422;-70
2023/09/11 08:05:37;;;;;;;;;;;;;;;;;;5110175;28;911;-70
2023/09/11 08:08:03;;;;;;;;;;;;;;;;;;5112452;28;1917;-70
2023/09/11 08:10:29;;;;;;;;;;;;;;;;;;5111914;28;915;-70
2023/09/11 08:12:54;;;;;;;;;;;;;;;;;;5110325;28;1234;-70
2023/09/11 08:15:19;;;;;;;;;;;;;;;;;;5111613;28;923;-70
2023/09/11 08:17:45;;;;;;;;;;;;;;;;;;5110512;28;1166;-70
2023/09/11 08:20:10;;;;;;;;;;;;;;;;;;5110824;28;892;-71
2023/09/11 08:22:37;;;;;;;;;;;;;;;;;;5111122;28;1210;-70
2023/09/11 08:25:02;;;;;;;;;;;;;;;;;;5112163;28;903;-71
2023/09/11 08:27:27;;;;;;;;;;;;;;;;;;5110869;28;1910;-70
2023/09/11 08:29:55;;;;;;;;;;;;;;;;;;5093996;28;1219;-70
2023/09/11 08:32:20;;;;;;;;;;;;;;;;;;5112391;28;879;-70
2023/09/11 08:34:46;;;;;;;;;;;;;;;;;;5111975;28;790;-70
2023/09/11 08:37:11;;;;;;;;;;;;;;;;;;5112177;28;990;-70
2023/09/11 08:39:36;;;;;;;;;;;;;;;;;;5111918;28;969;-70
2023/09/11 08:42:02;;;;;;;;;;;;;;;;;;5111622;28;859;-70
2023/09/11 08:44:28;;;;;;;;;;;;;;;;;;5111525;28;899;-70
2023/09/11 08:46:56;;;;;;;;;;;;;;;;;;5109695;28;1426;-70
2023/09/11 08:49:23;;;;;;;;;;;;;;;;;;5109896;28;1483;-70
2023/09/11 08:51:51;;;;;;;;;;;;;;;;;;5111054;28;836;-70
2023/09/11 08:54:18;;;;;;;;;;;;;;;;;;5111310;28;1232;-71
2023/09/11 08:56:43;;;;;;;;;;;;;;;;;;5110487;28;868;-69
2023/09/11 08:59:10;;;;;;;;;;;;;;;;;;5111473;28;949;-69
2023/09/11 09:01:36;;;;;;;;;;;;;;;;;;5110614;28;955;-69
2023/09/11 09:04:01;;;;;;;;;;;;;;;;;;5111098;28;891;-69
2023/09/11 09:06:27;;;;;;;;;;;;;;;;;;5109659;28;1100;-70
2023/09/11 09:08:53;;;;;;;;;;;;;;;;;;5092446;28;1917;-70
2023/09/11 09:11:20;;;;;;;;;;;;;;;;;;5110024;28;1237;-70
2023/09/11 09:13:45;;;;;;;;;;;;;;;;;;5108836;28;1129;-70
2023/09/11 09:16:10;;;;;;;;;;;;;;;;;;5111130;28;849;-70
2023/09/11 09:18:36;;;;;;;;;;;;;;;;;;5091903;28;1374;-70
2023/09/11 09:21:03;;;;;;;;;;;;;;;;;;5109558;28;1068;-70
2023/09/11 09:23:35;;;;;;;;;;;;;;;;;;5110760;28;1231;-70
2023/09/11 09:26:04;;;;;;;;;;;;;;;;;;5109473;28;1282;-70
2023/09/11 09:28:29;;;;;;;;;;;;;;;;;;5109180;28;1902;-70
2023/09/11 09:30:56;;;;;;;;;;;;;;;;;;5110941;28;867;-70
2023/09/11 09:33:22;;;;;;;;;;;;;;;;;;5109549;28;1230;-70
2023/09/11 09:35:48;;;;;;;;;;;;;;;;;;5109189;28;1183;-69
2023/09/11 09:38:13;;;;;;;;;;;;;;;;;;5114841;28;919;-70
2023/09/11 09:40:39;;;;;;;;;;;;;;;;;;5114204;28;792;-70
2023/09/11 09:43:14;;;;;;;;;;;;;;;;;;5113940;28;915;-69
2023/09/11 09:45:42;;;;;;;;;;;;;;;;;;5114707;27;844;-70
2023/09/11 09:48:08;;;;;;;;;;;;;;;;;;5113474;28;2061;-70
2023/09/11 09:50:53;;;;;;;;;;;;;;;;;;5115871;28;840;-70
2023/09/11 09:53:23;;;;;;;;;;;;;;;;;;5115449;28;926;-70
2023/09/11 09:55:48;;;;;;;;;;;;;;;;;;5114211;28;1529;-70
2023/09/11 09:58:13;;;;;;;;;;;;;;;;;;5113754;28;947;-70
2023/09/11 10:00:38;;;;;;;;;;;;;;;;;;5113148;28;1021;-70
2023/09/11 10:03:04;;;;;;;;;;;;;;;;;;5112841;28;1006;-70
2023/09/11 10:05:29;;;;;;;;;;;;;;;;;;5111536;28;1134;-70
2023/09/11 10:07:58;;;;;;;;;;;;;;;;;;5112444;28;1914;-70
2023/09/11 10:10:28;;;;;;;;;;;;;;;;;;5112894;28;1010;-70
2023/09/11 10:13:00;;;;;;;;;;;;;;;;;;5111412;28;962;-70
2023/09/11 10:15:26;;;;;;;;;;;;;;;;;;5112013;28;1297;-70
2023/09/11 10:17:54;;;;;;;;;;;;;;;;;;5114288;28;829;-70
2023/09/11 10:20:20;;;;;;;;;;;;;;;;;;5114701;28;902;-70
2023/09/11 10:22:46;;;;;;;;;;;;;;;;;;5112886;28;1225;-70
2023/09/11 10:25:11;;;;;;;;;;;;;;;;;;5113619;28;919;-70
2023/09/11 10:27:37;;;;;;;;;;;;;;;;;;5113981;28;1902;-70
2023/09/11 10:30:06;;;;;;;;;;;;;;;;;;5114060;28;835;-70
2023/09/11 10:32:34;;;;;;;;;;;;;;;;;;5114379;28;1012;-70
2023/09/11 10:35:01;;;;;;;;;;;;;;;;;;5115357;28;887;-70
2023/09/11 10:37:29;;;;;;;;;;;;;;;;;;5113533;28;1412;-70
2023/09/11 10:39:56;;;;;;;;;;;;;;;;;;5112719;28;934;-71
2023/09/11 10:42:21;;;;;;;;;;;;;;;;;;5114020;28;971;-70
2023/09/11 10:44:46;;;;;;;;;;;;;;;;;;5113313;28;1046;-70
2023/09/11 10:47:11;;;;;;;;;;;;;;;;;;5111587;28;1958;-70
2023/09/11 10:49:41;;;;;;;;;;;;;;;;;;5111705;28;1365;-70
2023/09/11 10:52:07;;;;;;;;;;;;;;;;;;5113483;28;852;-70
2023/09/11 10:54:33;;;;;;;;;;;;;;;;;;5111801;28;1312;-70
2023/09/11 10:56:58;;;;;;;;;;;;;;;;;;5112407;28;994;-70
2023/09/11 10:59:24;;;;;;;;;;;;;;;;;;5111921;28;1321;-70
2023/09/11 11:01:50;;;;;;;;;;;;;;;;;;5112199;28;971;-70
2023/09/11 11:04:16;;;;;;;;;;;;;;;;;;5111565;28;1450;-70
2023/09/11 11:06:45;;;;;;;;;;;;;;;;;;5113215;28;887;-70
2023/09/11 11:09:42;;;;;;;;;;;;;;;;;;5112713;28;1974;-70
2023/09/11 11:12:10;;;;;;;;;;;;;;;;;;5077931;28;1417;-70
2023/09/11 11:14:36;;;;;;;;;;;;;;;;;;5112525;28;753;-70
2023/09/11 11:17:01;;;;;;;;;;;;;;;;;;5110741;28;1329;-70
2023/09/11 11:19:30;;;;;;;;;;;;;;;;;;5112595;28;911;-70
2023/09/11 11:21:56;;;;;;;;;;;;;;;;;;5110717;28;1218;-70
2023/09/11 11:24:24;;;;;;;;;;;;;;;;;;5112676;28;832;-70
2023/09/11 11:26:49;;;;;;;;;;;;;;;;;;5110404;28;1308;-71
2023/09/11 11:29:16;;;;;;;;;;;;;;;;;;5113079;28;1981;-70
2023/09/11 11:31:42;;;;;;;;;;;;;;;;;;5103655;28;960;-70
2023/09/11 11:34:09;;;;;;;;;;;;;;;;;;5090987;28;1246;-70
2023/09/11 11:36:35;;;;;;;;;;;;;;;;;;5095755;28;1167;-71
2023/09/11 11:39:01;;;;;;;;;;;;;;;;;;5092364;28;906;-71
2023/09/11 11:41:27;;;;;;;;;;;;;;;;;;5092985;28;828;-70
2023/09/11 11:43:53;;;;;;;;;;;;;;;;;;5090060;28;1389;-70
2023/09/11 11:46:21;;;;;;;;;;;;;;;;;;5073739;28;1429;-70
2023/09/11 11:48:46;;;;;;;;;;;;;;;;;;5089822;28;1893;-70
2023/09/11 11:51:12;;;;;;;;;;;;;;;;;;5090396;28;1327;-70
2023/09/11 11:53:39;;;;;;;;;;;;;;;;;;5090305;28;939;-70
2023/09/11 11:56:04;;;;;;;;;;;;;;;;;;5091166;28;1166;-70
2023/09/11 11:58:30;;;;;;;;;;;;;;;;;;5091513;28;849;-70
2023/09/11 12:00:58;;;;;;;;;;;;;;;;;;5090391;28;966;-70
2023/09/11 12:03:24;;;;;;;;;;;;;;;;;;5091451;28;987;-70
2023/09/11 12:05:50;;;;;;;;;;;;;;;;;;5090784;28;871;-70
2023/09/11 12:08:15;;;;;;;;;;;;;;;;;;5090327;28;1957;-70
2023/09/11 12:10:45;;;;;;;;;;;;;;;;;;5072445;28;1382;-70
2023/09/11 12:13:12;;;;;;;;;;;;;;;;;;5090134;28;1341;-70
2023/09/11 12:15:37;;;;;;;;;;;;;;;;;;5090972;28;947;-70
2023/09/11 12:18:03;;;;;;;;;;;;;;;;;;5090689;28;829;-70
2023/09/11 12:20:29;;;;;;;;;;;;;;;;;;5091812;28;911;-70
2023/09/11 12:22:54;;;;;;;;;;;;;;;;;;5072925;28;1259;-70
2023/09/11 12:25:19;;;;;;;;;;;;;;;;;;5090547;28;1173;-71
2023/09/11 12:27:45;;;;;;;;;;;;;;;;;;5090976;28;1902;-71
2023/09/11 12:30:10;;;;;;;;;;;;;;;;;;5091985;28;875;-70
2023/09/11 12:32:36;;;;;;;;;;;;;;;;;;5090587;28;1417;-70
2023/09/11 12:35:02;;;;;;;;;;;;;;;;;;5091393;28;884;-70
2023/09/11 12:37:28;;;;;;;;;;;;;;;;;;5091887;28;844;-70
2023/09/11 12:39:54;;;;;;;;;;;;;;;;;;5090083;28;840;-70
2023/09/11 12:42:19;;;;;;;;;;;;;;;;;;5092079;28;1144;-70
2023/09/11 12:44:46;;;;;;;;;;;;;;;;;;5091199;28;982;-70
2023/09/11 12:47:11;;;;;;;;;;;;;;;;;;5091494;28;1890;-70
2023/09/11 12:49:36;;;;;;;;;;;;;;;;;;5091202;28;971;-70
2023/09/11 12:52:02;;;;;;;;;;;;;;;;;;5087752;28;1313;-71
2023/09/11 12:54:31;;;;;;;;;;;;;;;;;;5089158;28;1157;-70
2023/09/11 12:56:59;;;;;;;;;;;;;;;;;;5087053;28;876;-70
2023/09/11 12:59:24;;;;;;;;;;;;;;;;;;5089423;28;836;-70
2023/09/11 13:01:56;;;;;;;;;;;;;;;;;;5087288;28;1564;-70
2023/09/11 13:04:25;;;;;;;;;;;;;;;;;;5087593;28;1202;-70
2023/09/11 13:06:51;;;;;;;;;;;;;;;;;;5087089;28;1509;-70
2023/09/11 13:09:20;;;;;;;;;;;;;;;;;;5090825;28;1909;-70
2023/09/11 13:11:46;;;;;;;;;;;;;;;;;;5093318;28;919;-70
2023/09/11 13:14:12;;;;;;;;;;;;;;;;;;5093756;28;865;-71
2023/09/11 13:16:37;;;;;;;;;;;;;;;;;;5093334;28;955;-70
2023/09/11 13:19:02;;;;;;;;;;;;;;;;;;5094743;28;662;-71
2023/09/11 13:21:27;;;;;;;;;;;;;;;;;;5093754;28;1287;-70
2023/09/11 13:23:53;;;;;;;;;;;;;;;;;;5092758;28;1262;-70
2023/09/11 13:26:18;;;;;;;;;;;;;;;;;;5093964;28;1042;-70
2023/09/11 13:28:43;;;;;;;;;;;;;;;;;;5094746;28;1870;-70
2023/09/11 13:31:08;;;;;;;;;;;;;;;;;;5076557;28;1304;-70
2023/09/11 13:33:34;;;;;;;;;;;;;;;;;;5094519;28;911;-70
2023/09/11 13:35:59;;;;;;;;;;;;;;;;;;5091379;28;1238;-70
2023/09/11 13:38:24;;;;;;;;;;;;;;;;;;5109557;28;1223;-70
2023/09/11 13:40:49;;;;;;;;;;;;;;;;;;5103894;28;1187;-70
2023/09/11 13:43:15;;;;;;;;;;;;;;;;;;5099274;28;1125;-70
2023/09/11 13:45:40;;;;;;;;;;;;;;;;;;5073378;28;1172;-70
2023/09/11 13:48:05;;;;;;;;;;;;;;;;;;5089358;28;1905;-70
2023/09/11 13:50:31;;;;;;;;;;;;;;;;;;5091251;28;1187;-70
2023/09/11 13:52:56;;;;;;;;;;;;;;;;;;5090283;28;1424;-71
2023/09/11 13:55:21;;;;;;;;;;;;;;;;;;5091089;28;1271;-70
2023/09/11 13:57:46;;;;;;;;;;;;;;;;;;5093387;28;872;-70
2023/09/11 14:00:12;;;;;;;;;;;;;;;;;;5093766;28;785;-70
2023/09/11 14:02:37;;;;;;;;;;;;;;;;;;5093912;28;828;-70
2023/09/11 14:05:03;;;;;;;;;;;;;;;;;;5093341;28;995;-70
2023/09/11 14:07:28;;;;;;;;;;;;;;;;;;5093536;28;1913;-70
2023/09/11 14:09:54;;;;;;;;;;;;;;;;;;5092108;28;939;-70
2023/09/11 14:12:19;;;;;;;;;;;;;;;;;;5092513;28;883;-70
2023/09/11 14:14:44;;;;;;;;;;;;;;;;;;5094318;28;887;-70
2023/09/11 14:17:09;;;;;;;;;;;;;;;;;;5093025;28;1006;-70
2023/09/11 14:19:35;;;;;;;;;;;;;;;;;;5092788;28;1294;-70
2023/09/11 14:22:00;;;;;;;;;;;;;;;;;;5092804;28;868;-70
2023/09/11 14:24:25;;;;;;;;;;;;;;;;;;5093094;28;1178;-70
2023/09/11 14:26:51;;;;;;;;;;;;;;;;;;5093651;28;958;-70
2023/09/11 14:29:16;;;;;;;;;;;;;;;;;;5092369;28;1958;-70
2023/09/11 14:31:41;;;;;;;;;;;;;;;;;;5092345;28;923;-70
2023/09/11 14:34:07;;;;;;;;;;;;;;;;;;5093619;28;922;-70
2023/09/11 14:36:32;;;;;;;;;;;;;;;;;;5092196;28;1411;-70
2023/09/11 14:38:59;;;;;;;;;;;;;;;;;;5090926;28;1375;-70
2023/09/11 14:41:25;;;;;;;;;;;;;;;;;;5092038;28;805;-70
2023/09/11 14:43:50;;;;;;;;;;;;;;;;;;5091382;28;1155;-70
2023/09/11 14:46:15;;;;;;;;;;;;;;;;;;5092965;28;995;-70
2023/09/11 14:48:41;;;;;;;;;;;;;;;;;;5091327;28;1901;-70
2023/09/11 14:51:06;;;;;;;;;;;;;;;;;;5092780;28;966;-70
2023/09/11 14:53:38;;;;;;;;;;;;;;;;;;5093213;28;908;-70
2023/09/11 14:56:03;;;;;;;;;;;;;;;;;;5092103;28;1116;-70
2023/09/11 14:58:29;;;;;;;;;;;;;;;;;;5091687;28;1194;-70
2023/09/11 15:00:54;;;;;;;;;;;;;;;;;;5092312;28;907;-70
2023/09/11 15:03:19;;;;;;;;;;;;;;;;;;5093205;28;861;-70
2023/09/11 15:05:44;;;;;;;;;;;;;;;;;;5092620;28;867;-70
2023/09/11 15:08:12;;;;;;;;;;;;;;;;;;5090955;28;1906;-69
2023/09/11 15:10:39;;;;;;;;;;;;;;;;;;5092938;28;911;-69
2023/09/11 15:13:04;;;;;;;;;;;;;;;;;;5092473;28;844;-69
2023/09/11 15:15:30;;;;;;;;;;;;;;;;;;5091913;28;888;-70
2023/09/11 15:17:55;;;;;;;;;;;;;;;;;;5074042;28;1215;-70
2023/09/11 15:20:20;;;;;;;;;;;;;;;;;;5093077;28;946;-70
2023/09/11 15:22:45;;;;;;;;;;;;;;;;;;5093922;28;1187;-70
2023/09/11 15:25:11;;;;;;;;;;;;;;;;;;5110523;28;1294;-70
2023/09/11 15:27:36;;;;;;;;;;;;;;;;;;5110865;28;2447;-70
2023/09/11 15:30:01;;;;;;;;;;;;;;;;;;5110122;28;1253;-70
2023/09/11 15:32:27;;;;;;;;;;;;;;;;;;5110730;28;1237;-70
2023/09/11 15:34:52;;;;;;;;;;;;;;;;;;5108886;28;824;-70
2023/09/11 15:37:19;;;;;;;;;;;;;;;;;;5110242;28;773;-70
2023/09/11 15:39:45;;;;;;;;;;;;;;;;;;5112112;28;742;-70
2023/09/11 15:42:11;;;;;;;;;;;;;;;;;;5111765;28;722;-72
2023/09/11 15:44:36;;;;;;;;;;;;;;;;;;5110970;28;900;-70
2023/09/11 15:47:01;;;;;;;;;;;;;;;;;;5111833;28;817;-70
2023/09/11 15:49:26;;;;;;;;;;;;;;;;;;5112447;28;1909;-70
2023/09/11 15:51:52;;;;;;;;;;;;;;;;;;5110218;28;1210;-70
2023/09/11 15:54:17;;;;;;;;;;;;;;;;;;5110255;28;1076;-70
2023/09/11 15:56:42;;;;;;;;;;;;;;;;;;5111680;28;782;-68
2023/09/11 15:59:07;;;;;;;;;;;;;;;;;;5110893;28;947;-69
2023/09/11 16:01:33;;;;;;;;;;;;;;;;;;5112454;28;856;-68
2023/09/11 16:03:58;;;;;;;;;;;;;;;;;;5109183;28;1363;-68
2023/09/11 16:06:26;;;;;;;;;;;;;;;;;;5110430;28;1321;-69
2023/09/11 16:08:52;;;;;;;;;;;;;;;;;;5110077;28;1906;-69
2023/09/11 16:11:18;;;;;;;;;;;;;;;;;;5104571;28;1289;-69
2023/09/11 16:13:43;;;;;;;;;;;;;;;;;;5087349;28;1152;-68
2023/09/11 16:16:08;;;;;;;;;;;;;;;;;;5089520;28;1159;-68
2023/09/11 16:18:33;;;;;;;;;;;;;;;;;;5091124;28;1053;-68
2023/09/11 16:20:59;;;;;;;;;;;;;;;;;;5089425;28;1199;-68
2023/09/11 16:23:25;;;;;;;;;;;;;;;;;;5090252;28;1260;-68
2023/09/11 16:25:51;;;;;;;;;;;;;;;;;;5090360;28;1254;-68
2023/09/11 16:28:16;;;;;;;;;;;;;;;;;;5090637;28;1954;-69
2023/09/11 16:30:41;;;;;;;;;;;;;;;;;;5093158;28;899;-69
2023/09/11 16:33:07;;;;;;;;;;;;;;;;;;5090075;28;967;-69
2023/09/11 16:35:32;;;;;;;;;;;;;;;;;;5091763;28;750;-68
2023/09/11 16:37:58;;;;;;;;;;;;;;;;;;5091959;28;991;-68
2023/09/11 16:40:23;;;;;;;;;;;;;;;;;;5090866;28;1253;-69
2023/09/11 16:42:48;;;;;;;;;;;;;;;;;;5089044;28;1206;-69
2023/09/11 16:45:15;;;;;;;;;;;;;;;;;;5072987;28;1412;-69
2023/09/11 16:47:41;;;;;;;;;;;;;;;;;;5091379;28;1973;-69
2023/09/11 16:50:07;;;;;;;;;;;;;;;;;;5090296;28;808;-68
2023/09/11 16:52:32;;;;;;;;;;;;;;;;;;5090092;28;1719;-69
2023/09/11 16:54:58;;;;;;;;;;;;;;;;;;5091128;28;983;-69
2023/09/11 16:57:23;;;;;;;;;;;;;;;;;;5091619;28;1015;-69
2023/09/11 16:59:48;;;;;;;;;;;;;;;;;;5091285;28;949;-69
2023/09/11 17:02:13;;;;;;;;;;;;;;;;;;5089326;28;1175;-69